sensor_id;sensor_type;location;lat;lon;timestamp;P1;durP1;ratioP1;P2;durP2;ratioP2
72920;SDS011;61064;51.654;5.476;2023-04-03T00:00:59;9.70;;;3.50;;
72920;SDS011;61064;51.654;5.476;2023-04-03T00:03:24;7.97;;;3.37;;
72920;SDS011;61064;51.654;5.476;2023-04-03T00:05:53;7.68;;;3.80;;
72920;SDS011;61064;51.654;5.476;2023-04-03T00:08:19;8.85;;;3.40;;
72920;SDS011;61064;51.654;5.476;2023-04-03T00:10:45;10.03;;;4.20;;
72920;SDS011;61064;51.654;5.476;2023-04-03T00:13:10;8.33;;;3.73;;
72920;SDS011;61064;51.654;5.476;2023-04-03T00:15:36;9.10;;;3.67;;
72920;SDS011;61064;51.654;5.476;2023-04-03T00:18:02;9.45;;;3.95;;
72920;SDS011;61064;51.654;5.476;2023-04-03T00:20:28;9.90;;;3.87;;
72920;SDS011;61064;51.654;5.476;2023-04-03T00:22:54;9.47;;;3.73;;
72920;SDS011;61064;51.654;5.476;2023-04-03T00:25:20;9.82;;;4.00;;
72920;SDS011;61064;51.654;5.476;2023-04-03T00:27:48;9.63;;;3.73;;
72920;SDS011;61064;51.654;5.476;2023-04-03T00:30:15;9.02;;;4.10;;
72920;SDS011;61064;51.654;5.476;2023-04-03T00:32:46;8.75;;;3.45;;
72920;SDS011;61064;51.654;5.476;2023-04-03T00:35:16;9.38;;;3.30;;
72920;SDS011;61064;51.654;5.476;2023-04-03T00:37:46;11.80;;;4.07;;
72920;SDS011;61064;51.654;5.476;2023-04-03T00:40:12;7.93;;;3.40;;
72920;SDS011;61064;51.654;5.476;2023-04-03T00:42:40;9.77;;;3.53;;
72920;SDS011;61064;51.654;5.476;2023-04-03T00:47:35;9.63;;;3.53;;
72920;SDS011;61064;51.654;5.476;2023-04-03T00:50:00;10.57;;;4.07;;
72920;SDS011;61064;51.654;5.476;2023-04-03T00:52:28;9.63;;;3.65;;
72920;SDS011;61064;51.654;5.476;2023-04-03T00:54:57;9.40;;;3.80;;
72920;SDS011;61064;51.654;5.476;2023-04-03T00:57:27;8.82;;;3.55;;
72920;SDS011;61064;51.654;5.476;2023-04-03T00:59:55;8.45;;;3.65;;
72920;SDS011;61064;51.654;5.476;2023-04-03T01:02:26;7.55;;;3.35;;
72920;SDS011;61064;51.654;5.476;2023-04-03T01:04:52;9.93;;;3.70;;
72920;SDS011;61064;51.654;5.476;2023-04-03T01:07:21;8.17;;;3.43;;
72920;SDS011;61064;51.654;5.476;2023-04-03T01:09:49;9.90;;;3.30;;
72920;SDS011;61064;51.654;5.476;2023-04-03T01:12:19;9.20;;;3.72;;
72920;SDS011;61064;51.654;5.476;2023-04-03T01:14:54;9.60;;;3.83;;
72920;SDS011;61064;51.654;5.476;2023-04-03T01:19:50;8.32;;;3.47;;
72920;SDS011;61064;51.654;5.476;2023-04-03T01:25:27;7.97;;;3.50;;
72920;SDS011;61064;51.654;5.476;2023-04-03T01:27:53;8.43;;;3.30;;
72920;SDS011;61064;51.654;5.476;2023-04-03T01:30:19;9.32;;;2.92;;
72920;SDS011;61064;51.654;5.476;2023-04-03T01:32:48;9.50;;;3.40;;
72920;SDS011;61064;51.654;5.476;2023-04-03T01:35:14;8.10;;;3.33;;
72920;SDS011;61064;51.654;5.476;2023-04-03T01:37:39;10.17;;;3.47;;
72920;SDS011;61064;51.654;5.476;2023-04-03T01:40:05;8.88;;;3.35;;
72920;SDS011;61064;51.654;5.476;2023-04-03T01:42:31;8.47;;;3.20;;
72920;SDS011;61064;51.654;5.476;2023-04-03T01:44:57;10.18;;;3.72;;
72920;SDS011;61064;51.654;5.476;2023-04-03T01:47:22;8.43;;;3.10;;
72920;SDS011;61064;51.654;5.476;2023-04-03T01:49:51;7.57;;;2.90;;
72920;SDS011;61064;51.654;5.476;2023-04-03T01:52:16;9.25;;;3.53;;
72920;SDS011;61064;51.654;5.476;2023-04-03T01:54:42;8.23;;;3.17;;
72920;SDS011;61064;51.654;5.476;2023-04-03T01:57:07;8.73;;;2.80;;
72920;SDS011;61064;51.654;5.476;2023-04-03T01:59:33;7.47;;;2.47;;
72920;SDS011;61064;51.654;5.476;2023-04-03T02:01:58;12.43;;;2.93;;
72920;SDS011;61064;51.654;5.476;2023-04-03T02:04:23;7.18;;;2.50;;
72920;SDS011;61064;51.654;5.476;2023-04-03T02:06:49;7.60;;;2.47;;
72920;SDS011;61064;51.654;5.476;2023-04-03T02:09:14;9.43;;;2.63;;
72920;SDS011;61064;51.654;5.476;2023-04-03T02:11:40;7.73;;;2.50;;
72920;SDS011;61064;51.654;5.476;2023-04-03T02:14:05;6.00;;;2.37;;
72920;SDS011;61064;51.654;5.476;2023-04-03T02:16:31;7.38;;;2.30;;
72920;SDS011;61064;51.654;5.476;2023-04-03T02:18:56;8.43;;;2.40;;
72920;SDS011;61064;51.654;5.476;2023-04-03T02:21:22;8.57;;;2.50;;
72920;SDS011;61064;51.654;5.476;2023-04-03T02:23:48;7.25;;;2.45;;
72920;SDS011;61064;51.654;5.476;2023-04-03T02:26:14;7.63;;;2.70;;
72920;SDS011;61064;51.654;5.476;2023-04-03T02:28:41;8.80;;;2.78;;
72920;SDS011;61064;51.654;5.476;2023-04-03T02:31:07;7.40;;;2.50;;
72920;SDS011;61064;51.654;5.476;2023-04-03T02:33:42;9.17;;;2.83;;
72920;SDS011;61064;51.654;5.476;2023-04-03T02:36:08;6.93;;;2.50;;
72920;SDS011;61064;51.654;5.476;2023-04-03T02:38:34;7.93;;;2.60;;
72920;SDS011;61064;51.654;5.476;2023-04-03T02:41:04;8.07;;;2.50;;
72920;SDS011;61064;51.654;5.476;2023-04-03T02:43:31;7.35;;;2.10;;
72920;SDS011;61064;51.654;5.476;2023-04-03T02:45:57;8.35;;;2.20;;
72920;SDS011;61064;51.654;5.476;2023-04-03T02:48:23;8.50;;;2.53;;
72920;SDS011;61064;51.654;5.476;2023-04-03T02:50:48;7.75;;;2.40;;
72920;SDS011;61064;51.654;5.476;2023-04-03T02:53:14;7.57;;;2.20;;
72920;SDS011;61064;51.654;5.476;2023-04-03T02:55:40;9.25;;;2.35;;
72920;SDS011;61064;51.654;5.476;2023-04-03T02:58:06;7.38;;;2.17;;
72920;SDS011;61064;51.654;5.476;2023-04-03T03:00:32;8.13;;;2.23;;
72920;SDS011;61064;51.654;5.476;2023-04-03T03:02:58;8.48;;;2.70;;
72920;SDS011;61064;51.654;5.476;2023-04-03T03:05:25;6.95;;;2.15;;
72920;SDS011;61064;51.654;5.476;2023-04-03T03:07:51;7.07;;;2.20;;
72920;SDS011;61064;51.654;5.476;2023-04-03T03:10:17;8.77;;;2.20;;
72920;SDS011;61064;51.654;5.476;2023-04-03T03:12:42;7.93;;;2.20;;
72920;SDS011;61064;51.654;5.476;2023-04-03T03:15:11;8.57;;;2.23;;
72920;SDS011;61064;51.654;5.476;2023-04-03T03:17:37;8.10;;;2.22;;
72920;SDS011;61064;51.654;5.476;2023-04-03T03:20:03;5.63;;;2.07;;
72920;SDS011;61064;51.654;5.476;2023-04-03T03:22:33;6.93;;;2.00;;
72920;SDS011;61064;51.654;5.476;2023-04-03T03:24:59;7.72;;;2.28;;
72920;SDS011;61064;51.654;5.476;2023-04-03T03:27:25;7.50;;;2.20;;
72920;SDS011;61064;51.654;5.476;2023-04-03T03:29:51;6.43;;;2.10;;
72920;SDS011;61064;51.654;5.476;2023-04-03T03:32:16;6.43;;;2.10;;
72920;SDS011;61064;51.654;5.476;2023-04-03T03:34:41;7.37;;;2.43;;
72920;SDS011;61064;51.654;5.476;2023-04-03T03:37:07;8.43;;;2.30;;
72920;SDS011;61064;51.654;5.476;2023-04-03T03:39:32;8.60;;;2.20;;
72920;SDS011;61064;51.654;5.476;2023-04-03T03:41:57;7.97;;;2.10;;
72920;SDS011;61064;51.654;5.476;2023-04-03T03:44:23;10.60;;;2.20;;
72920;SDS011;61064;51.654;5.476;2023-04-03T03:46:48;7.93;;;2.23;;
72920;SDS011;61064;51.654;5.476;2023-04-03T03:49:14;6.33;;;1.80;;
72920;SDS011;61064;51.654;5.476;2023-04-03T03:51:39;5.75;;;2.00;;
72920;SDS011;61064;51.654;5.476;2023-04-03T03:54:05;7.57;;;1.97;;
72920;SDS011;61064;51.654;5.476;2023-04-03T03:56:31;7.85;;;2.13;;
72920;SDS011;61064;51.654;5.476;2023-04-03T03:58:57;6.10;;;1.60;;
72920;SDS011;61064;51.654;5.476;2023-04-03T04:01:23;7.67;;;2.23;;
72920;SDS011;61064;51.654;5.476;2023-04-03T04:03:49;6.60;;;1.67;;
72920;SDS011;61064;51.654;5.476;2023-04-03T04:06:14;6.38;;;2.00;;
72920;SDS011;61064;51.654;5.476;2023-04-03T04:08:40;6.83;;;1.90;;
72920;SDS011;61064;51.654;5.476;2023-04-03T04:11:06;6.90;;;1.70;;
72920;SDS011;61064;51.654;5.476;2023-04-03T04:13:31;6.20;;;1.90;;
72920;SDS011;61064;51.654;5.476;2023-04-03T04:15:56;7.57;;;1.90;;
72920;SDS011;61064;51.654;5.476;2023-04-03T04:18:22;13.07;;;4.53;;
72920;SDS011;61064;51.654;5.476;2023-04-03T04:20:48;15.90;;;5.47;;
72920;SDS011;61064;51.654;5.476;2023-04-03T04:23:14;8.57;;;2.67;;
72920;SDS011;61064;51.654;5.476;2023-04-03T04:25:39;8.30;;;1.77;;
72920;SDS011;61064;51.654;5.476;2023-04-03T04:28:05;7.03;;;1.70;;
72920;SDS011;61064;51.654;5.476;2023-04-03T04:30:31;9.77;;;1.67;;
72920;SDS011;61064;51.654;5.476;2023-04-03T04:32:57;6.47;;;1.80;;
72920;SDS011;61064;51.654;5.476;2023-04-03T04:35:22;5.40;;;1.60;;
72920;SDS011;61064;51.654;5.476;2023-04-03T04:37:47;7.70;;;2.33;;
72920;SDS011;61064;51.654;5.476;2023-04-03T04:40:13;6.78;;;1.65;;
72920;SDS011;61064;51.654;5.476;2023-04-03T04:42:38;8.40;;;1.80;;
72920;SDS011;61064;51.654;5.476;2023-04-03T04:45:03;5.60;;;1.50;;
72920;SDS011;61064;51.654;5.476;2023-04-03T04:47:29;6.57;;;1.90;;
72920;SDS011;61064;51.654;5.476;2023-04-03T04:49:55;6.33;;;1.63;;
72920;SDS011;61064;51.654;5.476;2023-04-03T04:52:20;7.50;;;2.27;;
72920;SDS011;61064;51.654;5.476;2023-04-03T04:54:45;8.67;;;2.03;;
72920;SDS011;61064;51.654;5.476;2023-04-03T04:57:11;5.73;;;1.23;;
72920;SDS011;61064;51.654;5.476;2023-04-03T04:59:37;7.38;;;1.70;;
72920;SDS011;61064;51.654;5.476;2023-04-03T05:02:02;10.53;;;1.67;;
72920;SDS011;61064;51.654;5.476;2023-04-03T05:04:27;6.00;;;1.57;;
72920;SDS011;61064;51.654;5.476;2023-04-03T05:06:53;5.10;;;1.40;;
72920;SDS011;61064;51.654;5.476;2023-04-03T05:09:18;7.47;;;1.38;;
72920;SDS011;61064;51.654;5.476;2023-04-03T05:11:45;7.07;;;1.45;;
72920;SDS011;61064;51.654;5.476;2023-04-03T05:14:11;7.65;;;1.40;;
72920;SDS011;61064;51.654;5.476;2023-04-03T05:16:37;4.82;;;1.45;;
72920;SDS011;61064;51.654;5.476;2023-04-03T05:19:03;6.18;;;1.60;;
72920;SDS011;61064;51.654;5.476;2023-04-03T05:21:29;6.07;;;1.43;;
72920;SDS011;61064;51.654;5.476;2023-04-03T05:23:57;7.13;;;1.30;;
72920;SDS011;61064;51.654;5.476;2023-04-03T05:26:23;7.60;;;1.50;;
72920;SDS011;61064;51.654;5.476;2023-04-03T05:28:50;5.72;;;1.58;;
72920;SDS011;61064;51.654;5.476;2023-04-03T05:31:15;6.80;;;1.80;;
72920;SDS011;61064;51.654;5.476;2023-04-03T05:33:41;7.43;;;1.70;;
72920;SDS011;61064;51.654;5.476;2023-04-03T05:36:06;6.55;;;1.65;;
72920;SDS011;61064;51.654;5.476;2023-04-03T05:38:32;5.97;;;1.53;;
72920;SDS011;61064;51.654;5.476;2023-04-03T05:40:58;5.68;;;1.63;;
72920;SDS011;61064;51.654;5.476;2023-04-03T05:43:23;8.20;;;1.73;;
72920;SDS011;61064;51.654;5.476;2023-04-03T05:45:49;8.67;;;1.70;;
72920;SDS011;61064;51.654;5.476;2023-04-03T05:48:14;7.95;;;1.50;;
72920;SDS011;61064;51.654;5.476;2023-04-03T05:50:39;6.60;;;1.70;;
72920;SDS011;61064;51.654;5.476;2023-04-03T05:53:07;5.40;;;1.42;;
72920;SDS011;61064;51.654;5.476;2023-04-03T05:55:40;8.93;;;1.57;;
72920;SDS011;61064;51.654;5.476;2023-04-03T05:58:05;9.23;;;1.70;;
72920;SDS011;61064;51.654;5.476;2023-04-03T06:00:31;5.60;;;1.48;;
72920;SDS011;61064;51.654;5.476;2023-04-03T06:02:56;7.67;;;1.60;;
72920;SDS011;61064;51.654;5.476;2023-04-03T06:05:22;8.43;;;1.70;;
72920;SDS011;61064;51.654;5.476;2023-04-03T06:07:47;8.10;;;1.50;;
72920;SDS011;61064;51.654;5.476;2023-04-03T06:10:14;5.40;;;1.55;;
72920;SDS011;61064;51.654;5.476;2023-04-03T06:12:39;8.32;;;1.60;;
72920;SDS011;61064;51.654;5.476;2023-04-03T06:15:05;7.67;;;1.70;;
72920;SDS011;61064;51.654;5.476;2023-04-03T06:17:33;7.07;;;1.52;;
72920;SDS011;61064;51.654;5.476;2023-04-03T06:19:58;5.73;;;1.50;;
72920;SDS011;61064;51.654;5.476;2023-04-03T06:22:24;6.07;;;1.40;;
72920;SDS011;61064;51.654;5.476;2023-04-03T06:24:50;9.25;;;1.90;;
72920;SDS011;61064;51.654;5.476;2023-04-03T06:27:16;7.73;;;1.80;;
72920;SDS011;61064;51.654;5.476;2023-04-03T06:29:41;10.02;;;1.40;;
72920;SDS011;61064;51.654;5.476;2023-04-03T06:32:07;27.47;;;2.03;;
72920;SDS011;61064;51.654;5.476;2023-04-03T06:34:32;6.47;;;1.40;;
72920;SDS011;61064;51.654;5.476;2023-04-03T06:36:58;8.50;;;1.50;;
72920;SDS011;61064;51.654;5.476;2023-04-03T06:39:23;8.47;;;1.40;;
72920;SDS011;61064;51.654;5.476;2023-04-03T06:41:49;5.30;;;1.23;;
72920;SDS011;61064;51.654;5.476;2023-04-03T06:44:15;6.93;;;1.30;;
72920;SDS011;61064;51.654;5.476;2023-04-03T06:46:41;8.50;;;1.53;;
72920;SDS011;61064;51.654;5.476;2023-04-03T06:49:07;5.45;;;1.40;;
72920;SDS011;61064;51.654;5.476;2023-04-03T06:51:34;7.43;;;1.50;;
72920;SDS011;61064;51.654;5.476;2023-04-03T06:54:00;8.60;;;1.70;;
72920;SDS011;61064;51.654;5.476;2023-04-03T06:56:27;6.23;;;1.40;;
72920;SDS011;61064;51.654;5.476;2023-04-03T06:58:56;8.02;;;1.52;;
72920;SDS011;61064;51.654;5.476;2023-04-03T07:01:26;6.05;;;1.50;;
72920;SDS011;61064;51.654;5.476;2023-04-03T07:03:52;5.65;;;1.70;;
72920;SDS011;61064;51.654;5.476;2023-04-03T07:06:18;6.37;;;1.50;;
72920;SDS011;61064;51.654;5.476;2023-04-03T07:08:44;8.00;;;1.30;;
72920;SDS011;61064;51.654;5.476;2023-04-03T07:11:11;6.85;;;1.38;;
72920;SDS011;61064;51.654;5.476;2023-04-03T07:13:37;8.43;;;1.17;;
72920;SDS011;61064;51.654;5.476;2023-04-03T07:16:03;6.68;;;1.38;;
72920;SDS011;61064;51.654;5.476;2023-04-03T07:18:29;6.93;;;1.25;;
72920;SDS011;61064;51.654;5.476;2023-04-03T07:20:55;7.30;;;1.23;;
72920;SDS011;61064;51.654;5.476;2023-04-03T07:23:21;10.40;;;1.20;;
72920;SDS011;61064;51.654;5.476;2023-04-03T07:25:47;8.70;;;1.15;;
72920;SDS011;61064;51.654;5.476;2023-04-03T07:28:17;7.47;;;1.58;;
72920;SDS011;61064;51.654;5.476;2023-04-03T07:30:48;6.50;;;1.30;;
72920;SDS011;61064;51.654;5.476;2023-04-03T07:33:15;5.17;;;0.90;;
72920;SDS011;61064;51.654;5.476;2023-04-03T07:35:42;5.38;;;1.13;;
72920;SDS011;61064;51.654;5.476;2023-04-03T07:38:08;6.25;;;1.00;;
72920;SDS011;61064;51.654;5.476;2023-04-03T07:40:34;5.75;;;1.08;;
72920;SDS011;61064;51.654;5.476;2023-04-03T07:43:00;6.20;;;1.20;;
72920;SDS011;61064;51.654;5.476;2023-04-03T07:45:26;8.25;;;1.10;;
72920;SDS011;61064;51.654;5.476;2023-04-03T07:47:52;5.73;;;1.40;;
72920;SDS011;61064;51.654;5.476;2023-04-03T07:50:18;6.63;;;1.20;;
72920;SDS011;61064;51.654;5.476;2023-04-03T07:52:44;8.40;;;1.30;;
72920;SDS011;61064;51.654;5.476;2023-04-03T07:55:10;4.47;;;0.90;;
72920;SDS011;61064;51.654;5.476;2023-04-03T07:57:36;5.57;;;1.20;;
72920;SDS011;61064;51.654;5.476;2023-04-03T08:00:03;6.97;;;1.15;;
72920;SDS011;61064;51.654;5.476;2023-04-03T08:02:29;5.50;;;1.00;;
72920;SDS011;61064;51.654;5.476;2023-04-03T08:04:57;6.57;;;1.23;;
72920;SDS011;61064;51.654;5.476;2023-04-03T08:07:23;5.07;;;1.10;;
72920;SDS011;61064;51.654;5.476;2023-04-03T08:09:49;5.90;;;1.15;;
72920;SDS011;61064;51.654;5.476;2023-04-03T08:12:14;7.17;;;1.20;;
72920;SDS011;61064;51.654;5.476;2023-04-03T08:14:40;6.28;;;1.23;;
72920;SDS011;61064;51.654;5.476;2023-04-03T08:17:05;4.73;;;0.87;;
72920;SDS011;61064;51.654;5.476;2023-04-03T08:19:34;6.60;;;1.20;;
72920;SDS011;61064;51.654;5.476;2023-04-03T08:22:00;5.43;;;0.90;;
72920;SDS011;61064;51.654;5.476;2023-04-03T08:24:27;8.55;;;1.10;;
72920;SDS011;61064;51.654;5.476;2023-04-03T08:26:53;7.10;;;1.40;;
72920;SDS011;61064;51.654;5.476;2023-04-03T08:29:19;6.13;;;1.33;;
72920;SDS011;61064;51.654;5.476;2023-04-03T08:31:46;6.72;;;1.10;;
72920;SDS011;61064;51.654;5.476;2023-04-03T08:34:14;5.43;;;0.80;;
72920;SDS011;61064;51.654;5.476;2023-04-03T08:36:40;8.73;;;1.00;;
72920;SDS011;61064;51.654;5.476;2023-04-03T08:39:06;8.02;;;1.13;;
72920;SDS011;61064;51.654;5.476;2023-04-03T08:41:35;7.47;;;1.10;;
72920;SDS011;61064;51.654;5.476;2023-04-03T08:49:45;5.60;;;0.88;;
72920;SDS011;61064;51.654;5.476;2023-04-03T08:52:20;8.43;;;1.13;;
72920;SDS011;61064;51.654;5.476;2023-04-03T08:55:39;5.68;;;0.93;;
72920;SDS011;61064;51.654;5.476;2023-04-03T08:58:04;6.50;;;0.90;;
72920;SDS011;61064;51.654;5.476;2023-04-03T09:00:43;6.18;;;1.02;;
72920;SDS011;61064;51.654;5.476;2023-04-03T09:03:14;6.20;;;0.88;;
72920;SDS011;61064;51.654;5.476;2023-04-03T09:08:29;4.97;;;0.70;;
72920;SDS011;61064;51.654;5.476;2023-04-03T09:11:05;3.72;;;0.50;;
72920;SDS011;61064;51.654;5.476;2023-04-03T09:16:49;3.42;;;0.40;;
72920;SDS011;61064;51.654;5.476;2023-04-03T09:21:46;5.68;;;1.15;;
72920;SDS011;61064;51.654;5.476;2023-04-03T09:24:12;5.00;;;0.70;;
72920;SDS011;61064;51.654;5.476;2023-04-03T09:26:48;4.93;;;0.70;;
72920;SDS011;61064;51.654;5.476;2023-04-03T09:29:18;6.13;;;0.70;;
72920;SDS011;61064;51.654;5.476;2023-04-03T09:31:46;3.70;;;0.70;;
72920;SDS011;61064;51.654;5.476;2023-04-03T09:34:22;3.73;;;0.70;;
72920;SDS011;61064;51.654;5.476;2023-04-03T09:36:52;2.95;;;0.50;;
72920;SDS011;61064;51.654;5.476;2023-04-03T09:39:20;4.05;;;0.68;;
72920;SDS011;61064;51.654;5.476;2023-04-03T09:42:00;6.72;;;1.30;;
72920;SDS011;61064;51.654;5.476;2023-04-03T09:44:36;5.72;;;0.50;;
72920;SDS011;61064;51.654;5.476;2023-04-03T09:52:38;3.72;;;0.50;;
72920;SDS011;61064;51.654;5.476;2023-04-03T09:55:07;4.20;;;0.40;;
72920;SDS011;61064;51.654;5.476;2023-04-03T09:57:39;1.88;;;0.30;;
72920;SDS011;61064;51.654;5.476;2023-04-03T10:00:04;2.27;;;0.27;;
72920;SDS011;61064;51.654;5.476;2023-04-03T10:02:40;3.78;;;0.40;;
72920;SDS011;61064;51.654;5.476;2023-04-03T10:09:01;1.97;;;0.30;;
72920;SDS011;61064;51.654;5.476;2023-04-03T10:11:07;2.88;;;0.30;;
72920;SDS011;61064;51.654;5.476;2023-04-03T10:13:50;2.45;;;0.40;;
72920;SDS011;61064;51.654;5.476;2023-04-03T10:16:21;1.95;;;0.30;;
72920;SDS011;61064;51.654;5.476;2023-04-03T10:21:35;2.73;;;0.30;;
72920;SDS011;61064;51.654;5.476;2023-04-03T10:27:13;2.25;;;0.40;;
72920;SDS011;61064;51.654;5.476;2023-04-03T10:29:52;2.42;;;0.30;;
72920;SDS011;61064;51.654;5.476;2023-04-03T10:32:34;1.52;;;0.15;;
72920;SDS011;61064;51.654;5.476;2023-04-03T10:35:18;2.50;;;0.20;;
72920;SDS011;61064;51.654;5.476;2023-04-03T10:41:31;1.75;;;0.20;;
72920;SDS011;61064;51.654;5.476;2023-04-03T10:43:58;2.47;;;0.30;;
72920;SDS011;61064;51.654;5.476;2023-04-03T10:46:48;2.38;;;0.30;;
72920;SDS011;61064;51.654;5.476;2023-04-03T10:52:24;2.25;;;0.20;;
72920;SDS011;61064;51.654;5.476;2023-04-03T10:57:28;2.60;;;0.30;;
72920;SDS011;61064;51.654;5.476;2023-04-03T10:59:56;2.88;;;0.30;;
72920;SDS011;61064;51.654;5.476;2023-04-03T11:02:47;1.10;;;0.20;;
72920;SDS011;61064;51.654;5.476;2023-04-03T11:05:30;2.03;;;0.30;;
72920;SDS011;61064;51.654;5.476;2023-04-03T11:08:02;2.45;;;0.40;;
72920;SDS011;61064;51.654;5.476;2023-04-03T11:10:43;2.10;;;0.20;;
72920;SDS011;61064;51.654;5.476;2023-04-03T11:13:12;2.45;;;0.30;;
72920;SDS011;61064;51.654;5.476;2023-04-03T11:15:44;2.37;;;0.30;;
72920;SDS011;61064;51.654;5.476;2023-04-03T11:18:15;1.50;;;0.28;;
72920;SDS011;61064;51.654;5.476;2023-04-03T11:21:01;2.78;;;0.40;;
72920;SDS011;61064;51.654;5.476;2023-04-03T11:23:33;2.60;;;0.30;;
72920;SDS011;61064;51.654;5.476;2023-04-03T11:26:07;2.40;;;0.30;;
72920;SDS011;61064;51.654;5.476;2023-04-03T11:28:35;2.63;;;0.30;;
72920;SDS011;61064;51.654;5.476;2023-04-03T11:31:13;2.58;;;0.40;;
72920;SDS011;61064;51.654;5.476;2023-04-03T11:37:04;3.30;;;0.35;;
72920;SDS011;61064;51.654;5.476;2023-04-03T11:39:38;3.50;;;0.40;;
72920;SDS011;61064;51.654;5.476;2023-04-03T11:42:29;2.23;;;0.40;;
72920;SDS011;61064;51.654;5.476;2023-04-03T12:13:39;3.88;;;0.60;;
72920;SDS011;61064;51.654;5.476;2023-04-03T12:16:06;3.50;;;0.50;;
72920;SDS011;61064;51.654;5.476;2023-04-03T12:21:17;3.10;;;0.50;;
72920;SDS011;61064;51.654;5.476;2023-04-03T12:26:31;2.45;;;0.50;;
72920;SDS011;61064;51.654;5.476;2023-04-03T12:29:15;4.82;;;0.70;;
72920;SDS011;61064;51.654;5.476;2023-04-03T12:31:55;3.22;;;0.55;;
72920;SDS011;61064;51.654;5.476;2023-04-03T12:34:30;2.77;;;0.50;;
72920;SDS011;61064;51.654;5.476;2023-04-03T12:40:15;3.65;;;0.52;;
72920;SDS011;61064;51.654;5.476;2023-04-03T12:45:29;4.03;;;0.80;;
72920;SDS011;61064;51.654;5.476;2023-04-03T12:48:13;3.33;;;0.60;;
72920;SDS011;61064;51.654;5.476;2023-04-03T12:50:41;4.72;;;0.70;;
72920;SDS011;61064;51.654;5.476;2023-04-03T12:53:27;4.10;;;0.52;;
72920;SDS011;61064;51.654;5.476;2023-04-03T12:56:18;3.50;;;0.60;;
72920;SDS011;61064;51.654;5.476;2023-04-03T12:58:47;4.65;;;0.60;;
72920;SDS011;61064;51.654;5.476;2023-04-03T13:01:15;4.23;;;0.60;;
72920;SDS011;61064;51.654;5.476;2023-04-03T13:03:47;4.07;;;0.68;;
72920;SDS011;61064;51.654;5.476;2023-04-03T13:06:25;5.57;;;1.33;;
72920;SDS011;61064;51.654;5.476;2023-04-03T13:08:54;2.25;;;0.43;;
72920;SDS011;61064;51.654;5.476;2023-04-03T13:11:47;3.58;;;0.55;;
72920;SDS011;61064;51.654;5.476;2023-04-03T13:14:24;4.23;;;0.80;;
72920;SDS011;61064;51.654;5.476;2023-04-03T13:16:57;5.72;;;0.80;;
72920;SDS011;61064;51.654;5.476;2023-04-03T13:19:24;5.63;;;0.80;;
72920;SDS011;61064;51.654;5.476;2023-04-03T13:21:53;4.45;;;0.80;;
72920;SDS011;61064;51.654;5.476;2023-04-03T13:24:31;5.20;;;0.80;;
72920;SDS011;61064;51.654;5.476;2023-04-03T13:27:01;3.40;;;0.60;;
72920;SDS011;61064;51.654;5.476;2023-04-03T13:29:28;4.70;;;0.85;;
72920;SDS011;61064;51.654;5.476;2023-04-03T13:31:57;5.18;;;0.93;;
72920;SDS011;61064;51.654;5.476;2023-04-03T13:34:25;4.63;;;0.80;;
72920;SDS011;61064;51.654;5.476;2023-04-03T13:41:47;3.78;;;0.63;;
72920;SDS011;61064;51.654;5.476;2023-04-03T13:44:25;3.00;;;0.50;;
72920;SDS011;61064;51.654;5.476;2023-04-03T13:46:58;5.13;;;0.88;;
72920;SDS011;61064;51.654;5.476;2023-04-03T13:49:36;5.50;;;0.80;;
72920;SDS011;61064;51.654;5.476;2023-04-03T13:54:52;4.97;;;1.10;;
72920;SDS011;61064;51.654;5.476;2023-04-03T13:57:26;4.33;;;0.70;;
72920;SDS011;61064;51.654;5.476;2023-04-03T13:59:53;6.15;;;0.80;;
72920;SDS011;61064;51.654;5.476;2023-04-03T14:02:28;4.13;;;0.80;;
72920;SDS011;61064;51.654;5.476;2023-04-03T14:04:56;3.90;;;0.60;;
72920;SDS011;61064;51.654;5.476;2023-04-03T14:07:26;5.38;;;1.10;;
72920;SDS011;61064;51.654;5.476;2023-04-03T14:09:54;4.77;;;0.60;;
72920;SDS011;61064;51.654;5.476;2023-04-03T14:12:24;4.30;;;0.80;;
72920;SDS011;61064;51.654;5.476;2023-04-03T14:14:52;5.15;;;0.80;;
72920;SDS011;61064;51.654;5.476;2023-04-03T14:17:23;4.85;;;0.80;;
72920;SDS011;61064;51.654;5.476;2023-04-03T14:19:50;3.80;;;0.70;;
72920;SDS011;61064;51.654;5.476;2023-04-03T14:22:18;4.28;;;0.80;;
72920;SDS011;61064;51.654;5.476;2023-04-03T14:24:47;7.10;;;0.80;;
72920;SDS011;61064;51.654;5.476;2023-04-03T14:27:22;4.43;;;0.90;;
72920;SDS011;61064;51.654;5.476;2023-04-03T14:29:50;5.10;;;0.88;;
72920;SDS011;61064;51.654;5.476;2023-04-03T14:32:17;4.80;;;0.67;;
72920;SDS011;61064;51.654;5.476;2023-04-03T14:34:46;4.97;;;0.80;;
72920;SDS011;61064;51.654;5.476;2023-04-03T14:37:14;6.40;;;1.20;;
72920;SDS011;61064;51.654;5.476;2023-04-03T14:39:48;3.28;;;0.70;;
72920;SDS011;61064;51.654;5.476;2023-04-03T14:42:16;6.78;;;0.90;;
72920;SDS011;61064;51.654;5.476;2023-04-03T14:44:43;4.30;;;0.70;;
72920;SDS011;61064;51.654;5.476;2023-04-03T14:47:12;5.65;;;1.13;;
72920;SDS011;61064;51.654;5.476;2023-04-03T14:49:40;5.13;;;0.80;;
72920;SDS011;61064;51.654;5.476;2023-04-03T14:52:06;5.47;;;0.90;;
72920;SDS011;61064;51.654;5.476;2023-04-03T14:54:31;4.82;;;1.00;;
72920;SDS011;61064;51.654;5.476;2023-04-03T14:56:57;4.73;;;0.83;;
72920;SDS011;61064;51.654;5.476;2023-04-03T14:59:24;5.53;;;0.82;;
72920;SDS011;61064;51.654;5.476;2023-04-03T15:01:50;5.60;;;1.10;;
72920;SDS011;61064;51.654;5.476;2023-04-03T15:04:19;4.40;;;0.80;;
72920;SDS011;61064;51.654;5.476;2023-04-03T15:06:46;5.00;;;1.05;;
72920;SDS011;61064;51.654;5.476;2023-04-03T15:09:16;4.65;;;0.88;;
72920;SDS011;61064;51.654;5.476;2023-04-03T15:11:45;4.80;;;0.93;;
72920;SDS011;61064;51.654;5.476;2023-04-03T15:14:11;4.60;;;0.87;;
72920;SDS011;61064;51.654;5.476;2023-04-03T15:16:36;3.60;;;0.75;;
72920;SDS011;61064;51.654;5.476;2023-04-03T15:19:02;4.30;;;0.67;;
72920;SDS011;61064;51.654;5.476;2023-04-03T15:21:28;4.27;;;0.80;;
72920;SDS011;61064;51.654;5.476;2023-04-03T15:23:53;5.47;;;0.80;;
72920;SDS011;61064;51.654;5.476;2023-04-03T15:26:18;2.80;;;0.60;;
72920;SDS011;61064;51.654;5.476;2023-04-03T15:28:45;4.10;;;0.70;;
72920;SDS011;61064;51.654;5.476;2023-04-03T15:31:10;4.20;;;0.83;;
72920;SDS011;61064;51.654;5.476;2023-04-03T15:33:36;4.67;;;0.67;;
72920;SDS011;61064;51.654;5.476;2023-04-03T15:36:02;4.45;;;0.80;;
72920;SDS011;61064;51.654;5.476;2023-04-03T15:38:28;5.40;;;0.75;;
72920;SDS011;61064;51.654;5.476;2023-04-03T15:40:54;4.97;;;0.93;;
72920;SDS011;61064;51.654;5.476;2023-04-03T15:43:20;5.88;;;0.75;;
72920;SDS011;61064;51.654;5.476;2023-04-03T15:45:45;4.43;;;0.70;;
72920;SDS011;61064;51.654;5.476;2023-04-03T15:48:11;3.60;;;0.70;;
72920;SDS011;61064;51.654;5.476;2023-04-03T15:50:37;6.53;;;0.90;;
72920;SDS011;61064;51.654;5.476;2023-04-03T15:53:03;6.28;;;1.23;;
72920;SDS011;61064;51.654;5.476;2023-04-03T15:55:29;5.33;;;1.20;;
72920;SDS011;61064;51.654;5.476;2023-04-03T15:57:57;6.03;;;1.02;;
72920;SDS011;61064;51.654;5.476;2023-04-03T16:00:23;4.35;;;0.85;;
72920;SDS011;61064;51.654;5.476;2023-04-03T16:02:51;5.53;;;0.90;;
72920;SDS011;61064;51.654;5.476;2023-04-03T16:05:20;5.85;;;1.00;;
72920;SDS011;61064;51.654;5.476;2023-04-03T16:07:45;6.25;;;0.80;;
72920;SDS011;61064;51.654;5.476;2023-04-03T16:10:12;4.30;;;0.90;;
72920;SDS011;61064;51.654;5.476;2023-04-03T16:12:38;5.18;;;0.80;;
72920;SDS011;61064;51.654;5.476;2023-04-03T16:15:04;5.57;;;0.90;;
72920;SDS011;61064;51.654;5.476;2023-04-03T16:17:32;4.20;;;0.70;;
72920;SDS011;61064;51.654;5.476;2023-04-03T16:19:58;6.88;;;1.10;;
72920;SDS011;61064;51.654;5.476;2023-04-03T16:22:25;4.57;;;0.75;;
72920;SDS011;61064;51.654;5.476;2023-04-03T16:24:52;6.28;;;1.08;;
72920;SDS011;61064;51.654;5.476;2023-04-03T16:27:18;5.53;;;1.00;;
72920;SDS011;61064;51.654;5.476;2023-04-03T16:29:43;4.60;;;0.70;;
72920;SDS011;61064;51.654;5.476;2023-04-03T16:32:08;4.30;;;0.70;;